sensor_id;sensor_type;location;lat;lon;timestamp;P1;durP1;ratioP1;P2;durP2;ratioP2
52554;SDS011;38455;52.710;6.502;2023-04-15T00:01:22;11.98;;;6.43;;
52554;SDS011;38455;52.710;6.502;2023-04-15T00:03:49;10.93;;;6.20;;
52554;SDS011;38455;52.710;6.502;2023-04-15T00:06:19;16.08;;;6.35;;
52554;SDS011;38455;52.710;6.502;2023-04-15T00:08:45;13.30;;;5.72;;
52554;SDS011;38455;52.710;6.502;2023-04-15T00:11:11;10.90;;;5.60;;
52554;SDS011;38455;52.710;6.502;2023-04-15T00:13:38;11.88;;;5.60;;
52554;SDS011;38455;52.710;6.502;2023-04-15T00:16:04;9.65;;;5.93;;
52554;SDS011;38455;52.710;6.502;2023-04-15T00:18:30;11.57;;;5.97;;
52554;SDS011;38455;52.710;6.502;2023-04-15T00:20:56;11.15;;;5.80;;
52554;SDS011;38455;52.710;6.502;2023-04-15T00:23:23;8.82;;;5.78;;
52554;SDS011;38455;52.710;6.502;2023-04-15T00:25:49;9.77;;;5.70;;
52554;SDS011;38455;52.710;6.502;2023-04-15T00:28:16;13.02;;;6.38;;
52554;SDS011;38455;52.710;6.502;2023-04-15T00:30:42;10.70;;;5.70;;
52554;SDS011;38455;52.710;6.502;2023-04-15T00:33:08;9.68;;;6.00;;
52554;SDS011;38455;52.710;6.502;2023-04-15T00:35:33;11.25;;;5.90;;
52554;SDS011;38455;52.710;6.502;2023-04-15T00:38:00;14.32;;;6.45;;
52554;SDS011;38455;52.710;6.502;2023-04-15T00:40:26;10.02;;;5.80;;
52554;SDS011;38455;52.710;6.502;2023-04-15T00:42:52;9.93;;;5.78;;
52554;SDS011;38455;52.710;6.502;2023-04-15T00:45:18;13.27;;;6.13;;
52554;SDS011;38455;52.710;6.502;2023-04-15T00:47:44;13.23;;;6.43;;
52554;SDS011;38455;52.710;6.502;2023-04-15T00:50:10;13.23;;;6.47;;
52554;SDS011;38455;52.710;6.502;2023-04-15T00:52:36;9.30;;;6.47;;
52554;SDS011;38455;52.710;6.502;2023-04-15T00:55:03;13.13;;;7.43;;
52554;SDS011;38455;52.710;6.502;2023-04-15T00:57:30;13.57;;;6.72;;
52554;SDS011;38455;52.710;6.502;2023-04-15T00:59:56;10.38;;;6.15;;
52554;SDS011;38455;52.710;6.502;2023-04-15T01:02:22;9.27;;;5.78;;
52554;SDS011;38455;52.710;6.502;2023-04-15T01:04:48;9.38;;;5.60;;
52554;SDS011;38455;52.710;6.502;2023-04-15T01:07:15;12.65;;;5.80;;
52554;SDS011;38455;52.710;6.502;2023-04-15T01:09:41;10.98;;;6.53;;
52554;SDS011;38455;52.710;6.502;2023-04-15T01:12:09;10.98;;;6.28;;
52554;SDS011;38455;52.710;6.502;2023-04-15T01:14:38;14.57;;;9.32;;
52554;SDS011;38455;52.710;6.502;2023-04-15T01:17:03;12.35;;;6.55;;
52554;SDS011;38455;52.710;6.502;2023-04-15T01:19:29;12.20;;;7.03;;
52554;SDS011;38455;52.710;6.502;2023-04-15T01:21:55;12.43;;;6.97;;
52554;SDS011;38455;52.710;6.502;2023-04-15T01:24:21;13.38;;;7.45;;
52554;SDS011;38455;52.710;6.502;2023-04-15T01:26:48;12.60;;;6.60;;
52554;SDS011;38455;52.710;6.502;2023-04-15T01:29:14;12.70;;;7.57;;
52554;SDS011;38455;52.710;6.502;2023-04-15T01:31:40;12.18;;;6.63;;
52554;SDS011;38455;52.710;6.502;2023-04-15T01:34:13;14.88;;;7.15;;
52554;SDS011;38455;52.710;6.502;2023-04-15T01:36:39;10.55;;;6.35;;
52554;SDS011;38455;52.710;6.502;2023-04-15T01:39:05;8.57;;;6.10;;
52554;SDS011;38455;52.710;6.502;2023-04-15T01:41:31;11.95;;;6.70;;
52554;SDS011;38455;52.710;6.502;2023-04-15T01:43:56;12.70;;;6.43;;
52554;SDS011;38455;52.710;6.502;2023-04-15T01:46:22;11.43;;;6.28;;
52554;SDS011;38455;52.710;6.502;2023-04-15T01:48:48;9.57;;;7.07;;
52554;SDS011;38455;52.710;6.502;2023-04-15T01:51:13;8.68;;;6.18;;
52554;SDS011;38455;52.710;6.502;2023-04-15T01:53:39;12.02;;;7.15;;
52554;SDS011;38455;52.710;6.502;2023-04-15T01:56:05;10.68;;;6.40;;
52554;SDS011;38455;52.710;6.502;2023-04-15T01:58:31;11.40;;;6.78;;
52554;SDS011;38455;52.710;6.502;2023-04-15T02:00:57;12.15;;;6.47;;
52554;SDS011;38455;52.710;6.502;2023-04-15T02:03:23;14.07;;;7.10;;
52554;SDS011;38455;52.710;6.502;2023-04-15T02:05:49;12.20;;;6.45;;
52554;SDS011;38455;52.710;6.502;2023-04-15T02:08:15;9.77;;;5.80;;
52554;SDS011;38455;52.710;6.502;2023-04-15T02:10:41;16.38;;;7.15;;
52554;SDS011;38455;52.710;6.502;2023-04-15T02:13:07;15.98;;;6.60;;
52554;SDS011;38455;52.710;6.502;2023-04-15T02:15:33;8.65;;;6.55;;
52554;SDS011;38455;52.710;6.502;2023-04-15T02:17:59;13.82;;;6.93;;
52554;SDS011;38455;52.710;6.502;2023-04-15T02:20:25;12.73;;;6.75;;
52554;SDS011;38455;52.710;6.502;2023-04-15T02:22:51;11.15;;;6.55;;
52554;SDS011;38455;52.710;6.502;2023-04-15T02:25:17;10.85;;;6.68;;
52554;SDS011;38455;52.710;6.502;2023-04-15T02:27:44;14.55;;;6.78;;
52554;SDS011;38455;52.710;6.502;2023-04-15T02:30:09;10.73;;;6.75;;
52554;SDS011;38455;52.710;6.502;2023-04-15T02:32:35;9.68;;;6.32;;
52554;SDS011;38455;52.710;6.502;2023-04-15T02:35:05;17.92;;;8.13;;
52554;SDS011;38455;52.710;6.502;2023-04-15T02:37:34;12.20;;;6.55;;
52554;SDS011;38455;52.710;6.502;2023-04-15T02:40:05;11.13;;;7.00;;
52554;SDS011;38455;52.710;6.502;2023-04-15T02:42:33;15.38;;;7.20;;
52554;SDS011;38455;52.710;6.502;2023-04-15T02:44:59;11.73;;;7.35;;
52554;SDS011;38455;52.710;6.502;2023-04-15T02:47:24;12.57;;;7.50;;
52554;SDS011;38455;52.710;6.502;2023-04-15T02:49:50;13.43;;;6.60;;
52554;SDS011;38455;52.710;6.502;2023-04-15T02:52:16;12.98;;;7.30;;
52554;SDS011;38455;52.710;6.502;2023-04-15T02:54:42;13.18;;;7.40;;
52554;SDS011;38455;52.710;6.502;2023-04-15T02:57:07;11.73;;;7.45;;
52554;SDS011;38455;52.710;6.502;2023-04-15T02:59:34;12.93;;;7.72;;
52554;SDS011;38455;52.710;6.502;2023-04-15T03:02:00;12.60;;;7.78;;
52554;SDS011;38455;52.710;6.502;2023-04-15T03:04:26;17.15;;;8.40;;
52554;SDS011;38455;52.710;6.502;2023-04-15T03:06:54;14.27;;;9.10;;
52554;SDS011;38455;52.710;6.502;2023-04-15T03:09:20;18.00;;;10.13;;
52554;SDS011;38455;52.710;6.502;2023-04-15T03:11:46;14.85;;;8.57;;
52554;SDS011;38455;52.710;6.502;2023-04-15T03:14:12;13.27;;;8.40;;
52554;SDS011;38455;52.710;6.502;2023-04-15T03:16:37;15.15;;;8.77;;
52554;SDS011;38455;52.710;6.502;2023-04-15T03:19:03;15.35;;;8.18;;
52554;SDS011;38455;52.710;6.502;2023-04-15T03:21:28;16.25;;;8.65;;
52554;SDS011;38455;52.710;6.502;2023-04-15T03:23:55;13.73;;;8.40;;
52554;SDS011;38455;52.710;6.502;2023-04-15T03:26:27;13.88;;;8.27;;
52554;SDS011;38455;52.710;6.502;2023-04-15T03:28:54;18.45;;;8.70;;
52554;SDS011;38455;52.710;6.502;2023-04-15T03:31:20;16.73;;;9.15;;
52554;SDS011;38455;52.710;6.502;2023-04-15T03:33:46;22.05;;;8.65;;
52554;SDS011;38455;52.710;6.502;2023-04-15T03:36:12;16.45;;;9.75;;
52554;SDS011;38455;52.710;6.502;2023-04-15T03:38:37;16.27;;;8.75;;
52554;SDS011;38455;52.710;6.502;2023-04-15T03:41:03;19.08;;;10.55;;
52554;SDS011;38455;52.710;6.502;2023-04-15T03:43:29;20.40;;;10.07;;
52554;SDS011;38455;52.710;6.502;2023-04-15T03:45:55;16.33;;;9.18;;
52554;SDS011;38455;52.710;6.502;2023-04-15T03:48:21;12.32;;;8.57;;
52554;SDS011;38455;52.710;6.502;2023-04-15T03:50:46;20.65;;;10.48;;
52554;SDS011;38455;52.710;6.502;2023-04-15T03:53:12;19.30;;;10.30;;
52554;SDS011;38455;52.710;6.502;2023-04-15T03:55:39;21.35;;;11.10;;
52554;SDS011;38455;52.710;6.502;2023-04-15T03:58:05;16.88;;;9.85;;
52554;SDS011;38455;52.710;6.502;2023-04-15T04:00:31;18.60;;;10.35;;
52554;SDS011;38455;52.710;6.502;2023-04-15T04:02:56;17.17;;;10.75;;
52554;SDS011;38455;52.710;6.502;2023-04-15T04:05:22;16.20;;;10.20;;
52554;SDS011;38455;52.710;6.502;2023-04-15T04:07:48;16.48;;;10.25;;
52554;SDS011;38455;52.710;6.502;2023-04-15T04:10:13;18.38;;;10.52;;
52554;SDS011;38455;52.710;6.502;2023-04-15T04:12:39;18.08;;;11.50;;
52554;SDS011;38455;52.710;6.502;2023-04-15T04:15:05;15.10;;;10.52;;
52554;SDS011;38455;52.710;6.502;2023-04-15T04:17:32;17.42;;;9.90;;
52554;SDS011;38455;52.710;6.502;2023-04-15T04:19:57;17.08;;;10.50;;
52554;SDS011;38455;52.710;6.502;2023-04-15T04:22:23;19.00;;;11.25;;
52554;SDS011;38455;52.710;6.502;2023-04-15T04:24:49;20.27;;;11.27;;
52554;SDS011;38455;52.710;6.502;2023-04-15T04:27:15;16.10;;;10.40;;
52554;SDS011;38455;52.710;6.502;2023-04-15T04:29:41;19.80;;;11.68;;
52554;SDS011;38455;52.710;6.502;2023-04-15T04:32:07;19.48;;;10.98;;
52554;SDS011;38455;52.710;6.502;2023-04-15T04:34:32;17.17;;;10.25;;
52554;SDS011;38455;52.710;6.502;2023-04-15T04:36:58;22.55;;;11.77;;
52554;SDS011;38455;52.710;6.502;2023-04-15T04:39:24;18.95;;;11.73;;
52554;SDS011;38455;52.710;6.502;2023-04-15T04:41:50;19.13;;;10.65;;
52554;SDS011;38455;52.710;6.502;2023-04-15T04:44:19;17.63;;;10.50;;
52554;SDS011;38455;52.710;6.502;2023-04-15T04:46:44;19.42;;;10.77;;
52554;SDS011;38455;52.710;6.502;2023-04-15T04:49:10;16.88;;;10.85;;
52554;SDS011;38455;52.710;6.502;2023-04-15T04:51:35;20.58;;;10.77;;
52554;SDS011;38455;52.710;6.502;2023-04-15T04:54:01;20.08;;;11.93;;
52554;SDS011;38455;52.710;6.502;2023-04-15T04:56:28;19.42;;;11.02;;
52554;SDS011;38455;52.710;6.502;2023-04-15T04:58:53;19.50;;;10.93;;
52554;SDS011;38455;52.710;6.502;2023-04-15T05:01:19;17.17;;;10.40;;
52554;SDS011;38455;52.710;6.502;2023-04-15T05:03:45;20.10;;;10.15;;
52554;SDS011;38455;52.710;6.502;2023-04-15T05:06:11;19.60;;;11.27;;
52554;SDS011;38455;52.710;6.502;2023-04-15T05:08:36;17.95;;;10.80;;
52554;SDS011;38455;52.710;6.502;2023-04-15T05:11:02;17.38;;;11.27;;
52554;SDS011;38455;52.710;6.502;2023-04-15T05:13:28;19.95;;;11.85;;
52554;SDS011;38455;52.710;6.502;2023-04-15T05:15:54;22.23;;;12.48;;
52554;SDS011;38455;52.710;6.502;2023-04-15T05:18:20;17.67;;;11.55;;
52554;SDS011;38455;52.710;6.502;2023-04-15T05:20:46;16.83;;;11.48;;
52554;SDS011;38455;52.710;6.502;2023-04-15T05:23:13;18.63;;;11.35;;
52554;SDS011;38455;52.710;6.502;2023-04-15T05:25:39;18.35;;;12.10;;
52554;SDS011;38455;52.710;6.502;2023-04-15T05:28:05;23.85;;;13.25;;
52554;SDS011;38455;52.710;6.502;2023-04-15T05:30:31;19.42;;;12.52;;
52554;SDS011;38455;52.710;6.502;2023-04-15T05:32:56;23.65;;;12.57;;
52554;SDS011;38455;52.710;6.502;2023-04-15T05:35:22;21.00;;;12.48;;
52554;SDS011;38455;52.710;6.502;2023-04-15T05:37:47;20.75;;;12.52;;
52554;SDS011;38455;52.710;6.502;2023-04-15T05:40:13;20.58;;;12.35;;
52554;SDS011;38455;52.710;6.502;2023-04-15T05:42:39;17.92;;;11.35;;
52554;SDS011;38455;52.710;6.502;2023-04-15T05:45:05;17.38;;;11.15;;
52554;SDS011;38455;52.710;6.502;2023-04-15T05:47:34;17.52;;;11.55;;
52554;SDS011;38455;52.710;6.502;2023-04-15T05:50:00;19.92;;;12.57;;
52554;SDS011;38455;52.710;6.502;2023-04-15T05:52:26;20.27;;;11.60;;
52554;SDS011;38455;52.710;6.502;2023-04-15T05:54:51;19.40;;;11.30;;
52554;SDS011;38455;52.710;6.502;2023-04-15T05:57:17;18.08;;;11.57;;
52554;SDS011;38455;52.710;6.502;2023-04-15T05:59:42;18.77;;;11.15;;
52554;SDS011;38455;52.710;6.502;2023-04-15T06:02:09;18.30;;;11.32;;
52554;SDS011;38455;52.710;6.502;2023-04-15T06:04:34;17.02;;;11.20;;
52554;SDS011;38455;52.710;6.502;2023-04-15T06:07:01;18.98;;;11.43;;
52554;SDS011;38455;52.710;6.502;2023-04-15T06:09:26;17.42;;;10.55;;
52554;SDS011;38455;52.710;6.502;2023-04-15T06:11:53;16.83;;;10.85;;
52554;SDS011;38455;52.710;6.502;2023-04-15T06:14:18;18.85;;;11.32;;
52554;SDS011;38455;52.710;6.502;2023-04-15T06:16:44;15.88;;;10.52;;
52554;SDS011;38455;52.710;6.502;2023-04-15T06:19:10;16.45;;;10.25;;
52554;SDS011;38455;52.710;6.502;2023-04-15T06:21:36;16.10;;;10.80;;
52554;SDS011;38455;52.710;6.502;2023-04-15T06:24:02;16.55;;;10.05;;
52554;SDS011;38455;52.710;6.502;2023-04-15T06:26:28;15.48;;;10.15;;
52554;SDS011;38455;52.710;6.502;2023-04-15T06:28:53;16.42;;;10.95;;
52554;SDS011;38455;52.710;6.502;2023-04-15T06:31:19;16.75;;;10.05;;
52554;SDS011;38455;52.710;6.502;2023-04-15T06:33:45;19.88;;;11.05;;
52554;SDS011;38455;52.710;6.502;2023-04-15T06:36:11;16.90;;;10.80;;
52554;SDS011;38455;52.710;6.502;2023-04-15T06:38:36;14.23;;;10.05;;
52554;SDS011;38455;52.710;6.502;2023-04-15T06:41:02;18.73;;;10.60;;
52554;SDS011;38455;52.710;6.502;2023-04-15T06:43:28;15.48;;;10.57;;
52554;SDS011;38455;52.710;6.502;2023-04-15T06:45:54;15.10;;;9.95;;
52554;SDS011;38455;52.710;6.502;2023-04-15T06:48:20;16.30;;;9.82;;
52554;SDS011;38455;52.710;6.502;2023-04-15T06:50:46;20.25;;;9.50;;
52554;SDS011;38455;52.710;6.502;2023-04-15T06:53:13;13.98;;;9.25;;
52554;SDS011;38455;52.710;6.502;2023-04-15T06:55:39;17.73;;;9.25;;
52554;SDS011;38455;52.710;6.502;2023-04-15T06:58:05;17.40;;;9.40;;
52554;SDS011;38455;52.710;6.502;2023-04-15T07:00:31;13.75;;;9.15;;
52554;SDS011;38455;52.710;6.502;2023-04-15T07:02:58;13.25;;;9.05;;
52554;SDS011;38455;52.710;6.502;2023-04-15T07:05:27;17.05;;;9.82;;
52554;SDS011;38455;52.710;6.502;2023-04-15T07:07:54;18.80;;;10.00;;
52554;SDS011;38455;52.710;6.502;2023-04-15T07:10:20;14.90;;;9.52;;
52554;SDS011;38455;52.710;6.502;2023-04-15T07:12:46;18.42;;;10.38;;
52554;SDS011;38455;52.710;6.502;2023-04-15T07:15:12;12.75;;;8.88;;
52554;SDS011;38455;52.710;6.502;2023-04-15T07:17:39;15.57;;;9.50;;
52554;SDS011;38455;52.710;6.502;2023-04-15T07:20:05;12.65;;;9.05;;
52554;SDS011;38455;52.710;6.502;2023-04-15T07:22:32;15.00;;;9.93;;
52554;SDS011;38455;52.710;6.502;2023-04-15T07:24:58;13.88;;;8.85;;
52554;SDS011;38455;52.710;6.502;2023-04-15T07:27:23;15.50;;;9.40;;
52554;SDS011;38455;52.710;6.502;2023-04-15T07:29:49;13.90;;;9.40;;
52554;SDS011;38455;52.710;6.502;2023-04-15T07:32:16;15.02;;;9.98;;
52554;SDS011;38455;52.710;6.502;2023-04-15T07:34:42;15.02;;;9.57;;
52554;SDS011;38455;52.710;6.502;2023-04-15T07:37:08;13.77;;;9.32;;
52554;SDS011;38455;52.710;6.502;2023-04-15T07:39:34;13.13;;;8.80;;
52554;SDS011;38455;52.710;6.502;2023-04-15T07:41:59;14.10;;;9.32;;
52554;SDS011;38455;52.710;6.502;2023-04-15T07:44:26;13.15;;;8.52;;
52554;SDS011;38455;52.710;6.502;2023-04-15T07:46:52;15.05;;;7.90;;
52554;SDS011;38455;52.710;6.502;2023-04-15T07:49:18;12.90;;;7.80;;
52554;SDS011;38455;52.710;6.502;2023-04-15T07:51:45;15.45;;;8.93;;
52554;SDS011;38455;52.710;6.502;2023-04-15T07:54:11;12.15;;;8.05;;
52554;SDS011;38455;52.710;6.502;2023-04-15T07:56:36;14.40;;;8.40;;
52554;SDS011;38455;52.710;6.502;2023-04-15T07:59:02;14.65;;;8.15;;
52554;SDS011;38455;52.710;6.502;2023-04-15T08:01:29;13.02;;;8.18;;
52554;SDS011;38455;52.710;6.502;2023-04-15T08:03:55;10.05;;;7.25;;
52554;SDS011;38455;52.710;6.502;2023-04-15T08:06:21;15.25;;;8.90;;
52554;SDS011;38455;52.710;6.502;2023-04-15T08:08:47;10.98;;;6.95;;
52554;SDS011;38455;52.710;6.502;2023-04-15T08:11:13;13.15;;;7.10;;
52554;SDS011;38455;52.710;6.502;2023-04-15T08:13:38;10.45;;;7.25;;
52554;SDS011;38455;52.710;6.502;2023-04-15T08:16:20;10.23;;;6.97;;
52554;SDS011;38455;52.710;6.502;2023-04-15T08:18:47;10.45;;;7.50;;
52554;SDS011;38455;52.710;6.502;2023-04-15T08:21:13;9.10;;;6.80;;
52554;SDS011;38455;52.710;6.502;2023-04-15T08:23:40;10.00;;;6.70;;
52554;SDS011;38455;52.710;6.502;2023-04-15T08:26:07;11.82;;;6.63;;
52554;SDS011;38455;52.710;6.502;2023-04-15T08:28:33;10.27;;;6.57;;
52554;SDS011;38455;52.710;6.502;2023-04-15T08:30:59;12.13;;;6.57;;
52554;SDS011;38455;52.710;6.502;2023-04-15T08:33:25;8.38;;;5.57;;
52554;SDS011;38455;52.710;6.502;2023-04-15T08:35:52;10.82;;;5.75;;
52554;SDS011;38455;52.710;6.502;2023-04-15T08:38:18;10.95;;;5.13;;
52554;SDS011;38455;52.710;6.502;2023-04-15T08:40:44;7.25;;;5.47;;
52554;SDS011;38455;52.710;6.502;2023-04-15T08:43:12;9.50;;;4.93;;
52554;SDS011;38455;52.710;6.502;2023-04-15T08:45:44;9.98;;;5.50;;
52554;SDS011;38455;52.710;6.502;2023-04-15T08:48:13;8.60;;;5.78;;
52554;SDS011;38455;52.710;6.502;2023-04-15T08:50:42;7.78;;;4.63;;
52554;SDS011;38455;52.710;6.502;2023-04-15T08:53:09;19.50;;;5.65;;
52554;SDS011;38455;52.710;6.502;2023-04-15T08:55:36;8.82;;;5.15;;
52554;SDS011;38455;52.710;6.502;2023-04-15T08:58:08;9.00;;;4.30;;
52554;SDS011;38455;52.710;6.502;2023-04-15T09:00:35;9.50;;;4.50;;
52554;SDS011;38455;52.710;6.502;2023-04-15T09:03:02;8.82;;;4.07;;
52554;SDS011;38455;52.710;6.502;2023-04-15T09:05:32;6.18;;;3.92;;
52554;SDS011;38455;52.710;6.502;2023-04-15T09:07:59;6.40;;;3.90;;
52554;SDS011;38455;52.710;6.502;2023-04-15T09:10:26;6.57;;;3.90;;
52554;SDS011;38455;52.710;6.502;2023-04-15T09:12:52;8.73;;;3.47;;
52554;SDS011;38455;52.710;6.502;2023-04-15T09:15:18;7.43;;;3.60;;
52554;SDS011;38455;52.710;6.502;2023-04-15T09:17:44;6.57;;;3.72;;
52554;SDS011;38455;52.710;6.502;2023-04-15T09:20:12;5.82;;;3.50;;
52554;SDS011;38455;52.710;6.502;2023-04-15T09:22:42;7.65;;;3.80;;
52554;SDS011;38455;52.710;6.502;2023-04-15T09:27:50;6.78;;;3.97;;
52554;SDS011;38455;52.710;6.502;2023-04-15T09:30:17;7.70;;;3.90;;
52554;SDS011;38455;52.710;6.502;2023-04-15T09:32:56;7.80;;;4.20;;
52554;SDS011;38455;52.710;6.502;2023-04-15T09:35:23;8.40;;;3.85;;
52554;SDS011;38455;52.710;6.502;2023-04-15T09:37:50;8.10;;;4.10;;
52554;SDS011;38455;52.710;6.502;2023-04-15T09:40:35;7.18;;;3.97;;
52554;SDS011;38455;52.710;6.502;2023-04-15T09:43:04;6.30;;;3.70;;
52554;SDS011;38455;52.710;6.502;2023-04-15T09:45:30;6.30;;;3.45;;
52554;SDS011;38455;52.710;6.502;2023-04-15T09:47:57;6.90;;;3.33;;
52554;SDS011;38455;52.710;6.502;2023-04-15T09:50:27;5.07;;;3.15;;
52554;SDS011;38455;52.710;6.502;2023-04-15T09:52:55;4.78;;;3.25;;
52554;SDS011;38455;52.710;6.502;2023-04-15T09:55:21;5.93;;;3.33;;
52554;SDS011;38455;52.710;6.502;2023-04-15T09:57:47;5.53;;;3.47;;
52554;SDS011;38455;52.710;6.502;2023-04-15T10:00:13;7.15;;;3.92;;
52554;SDS011;38455;52.710;6.502;2023-04-15T10:02:39;11.20;;;4.30;;
52554;SDS011;38455;52.710;6.502;2023-04-15T10:05:09;7.38;;;3.83;;
52554;SDS011;38455;52.710;6.502;2023-04-15T10:07:36;8.52;;;3.50;;
52554;SDS011;38455;52.710;6.502;2023-04-15T10:10:05;5.63;;;3.67;;
52554;SDS011;38455;52.710;6.502;2023-04-15T10:12:31;6.63;;;3.15;;
52554;SDS011;38455;52.710;6.502;2023-04-15T10:14:59;6.65;;;2.95;;
52554;SDS011;38455;52.710;6.502;2023-04-15T10:17:32;7.38;;;3.05;;
52554;SDS011;38455;52.710;6.502;2023-04-15T10:20:03;8.35;;;2.90;;
52554;SDS011;38455;52.710;6.502;2023-04-15T10:22:30;5.65;;;2.40;;
52554;SDS011;38455;52.710;6.502;2023-04-15T10:24:57;4.57;;;2.25;;
52554;SDS011;38455;52.710;6.502;2023-04-15T10:27:24;7.28;;;2.65;;
52554;SDS011;38455;52.710;6.502;2023-04-15T10:29:51;7.30;;;2.10;;
52554;SDS011;38455;52.710;6.502;2023-04-15T10:32:18;4.40;;;2.65;;
52554;SDS011;38455;52.710;6.502;2023-04-15T10:34:45;4.63;;;2.47;;
52554;SDS011;38455;52.710;6.502;2023-04-15T10:37:22;5.25;;;2.33;;
52554;SDS011;38455;52.710;6.502;2023-04-15T10:39:59;4.80;;;2.78;;
52554;SDS011;38455;52.710;6.502;2023-04-15T10:42:26;3.95;;;1.67;;
52554;SDS011;38455;52.710;6.502;2023-04-15T10:44:59;4.78;;;2.00;;
52554;SDS011;38455;52.710;6.502;2023-04-15T10:47:24;5.32;;;2.25;;
52554;SDS011;38455;52.710;6.502;2023-04-15T10:49:51;2.60;;;1.65;;
52554;SDS011;38455;52.710;6.502;2023-04-15T10:52:25;3.20;;;1.80;;
52554;SDS011;38455;52.710;6.502;2023-04-15T10:55:02;6.32;;;1.85;;
52554;SDS011;38455;52.710;6.502;2023-04-15T10:57:33;2.97;;;1.65;;
52554;SDS011;38455;52.710;6.502;2023-04-15T11:02:44;6.00;;;1.88;;
52554;SDS011;38455;52.710;6.502;2023-04-15T11:05:11;3.55;;;1.65;;
52554;SDS011;38455;52.710;6.502;2023-04-15T11:12:38;5.10;;;1.55;;
52554;SDS011;38455;52.710;6.502;2023-04-15T11:17:51;5.28;;;1.80;;
52554;SDS011;38455;52.710;6.502;2023-04-15T11:20:17;6.03;;;1.90;;
52554;SDS011;38455;52.710;6.502;2023-04-15T11:22:49;3.75;;;2.30;;
52554;SDS011;38455;52.710;6.502;2023-04-15T11:25:30;3.72;;;2.17;;
52554;SDS011;38455;52.710;6.502;2023-04-15T11:27:57;4.45;;;2.17;;
52554;SDS011;38455;52.710;6.502;2023-04-15T11:30:24;5.63;;;2.53;;
52554;SDS011;38455;52.710;6.502;2023-04-15T11:32:57;5.22;;;2.40;;
52554;SDS011;38455;52.710;6.502;2023-04-15T11:35:24;8.20;;;1.90;;
52554;SDS011;38455;52.710;6.502;2023-04-15T11:37:49;3.55;;;1.70;;
52554;SDS011;38455;52.710;6.502;2023-04-15T11:40:16;4.65;;;1.88;;
52554;SDS011;38455;52.710;6.502;2023-04-15T11:42:46;4.53;;;2.05;;
52554;SDS011;38455;52.710;6.502;2023-04-15T11:45:27;3.70;;;1.63;;
52554;SDS011;38455;52.710;6.502;2023-04-15T11:47:53;5.57;;;1.50;;
52554;SDS011;38455;52.710;6.502;2023-04-15T11:50:19;2.83;;;1.50;;
52554;SDS011;38455;52.710;6.502;2023-04-15T11:55:18;2.67;;;1.50;;
52554;SDS011;38455;52.710;6.502;2023-04-15T11:57:44;4.57;;;1.70;;
52554;SDS011;38455;52.710;6.502;2023-04-15T12:00:10;4.53;;;1.88;;
52554;SDS011;38455;52.710;6.502;2023-04-15T12:02:37;3.20;;;1.63;;
52554;SDS011;38455;52.710;6.502;2023-04-15T12:05:04;5.20;;;1.80;;
52554;SDS011;38455;52.710;6.502;2023-04-15T12:07:30;6.47;;;1.95;;
52554;SDS011;38455;52.710;6.502;2023-04-15T12:09:57;5.03;;;1.98;;
52554;SDS011;38455;52.710;6.502;2023-04-15T12:12:26;5.88;;;2.40;;
52554;SDS011;38455;52.710;6.502;2023-04-15T12:14:52;7.38;;;2.03;;
52554;SDS011;38455;52.710;6.502;2023-04-15T12:17:20;4.15;;;1.77;;
52554;SDS011;38455;52.710;6.502;2023-04-15T12:19:48;5.43;;;1.98;;
52554;SDS011;38455;52.710;6.502;2023-04-15T12:22:20;7.20;;;2.20;;
52554;SDS011;38455;52.710;6.502;2023-04-15T12:24:46;7.70;;;2.60;;
52554;SDS011;38455;52.710;6.502;2023-04-15T12:27:14;6.72;;;1.98;;
52554;SDS011;38455;52.710;6.502;2023-04-15T12:29:40;8.57;;;2.15;;
52554;SDS011;38455;52.710;6.502;2023-04-15T12:32:10;5.00;;;2.03;;
52554;SDS011;38455;52.710;6.502;2023-04-15T12:34:39;7.22;;;2.10;;
52554;SDS011;38455;52.710;6.502;2023-04-15T12:37:15;9.70;;;2.35;;
52554;SDS011;38455;52.710;6.502;2023-04-15T12:39:42;8.45;;;2.55;;
52554;SDS011;38455;52.710;6.502;2023-04-15T12:42:09;10.18;;;2.22;;
52554;SDS011;38455;52.710;6.502;2023-04-15T12:44:35;7.13;;;1.90;;
52554;SDS011;38455;52.710;6.502;2023-04-15T12:47:02;5.55;;;1.80;;
52554;SDS011;38455;52.710;6.502;2023-04-15T12:49:30;5.50;;;1.90;;
52554;SDS011;38455;52.710;6.502;2023-04-15T12:51:57;10.10;;;2.78;;
52554;SDS011;38455;52.710;6.502;2023-04-15T12:54:27;10.43;;;2.28;;
52554;SDS011;38455;52.710;6.502;2023-04-15T12:56:54;6.93;;;1.75;;
52554;SDS011;38455;52.710;6.502;2023-04-15T12:59:20;7.43;;;1.90;;
52554;SDS011;38455;52.710;6.502;2023-04-15T13:01:47;4.20;;;1.60;;
52554;SDS011;38455;52.710;6.502;2023-04-15T13:04:14;4.10;;;1.70;;
52554;SDS011;38455;52.710;6.502;2023-04-15T13:06:40;7.30;;;2.70;;
52554;SDS011;38455;52.710;6.502;2023-04-15T13:09:06;4.88;;;1.60;;
52554;SDS011;38455;52.710;6.502;2023-04-15T13:11:32;8.32;;;1.90;;
52554;SDS011;38455;52.710;6.502;2023-04-15T13:14:02;8.30;;;1.92;;
52554;SDS011;38455;52.710;6.502;2023-04-15T13:16:29;6.10;;;1.85;;
52554;SDS011;38455;52.710;6.502;2023-04-15T13:18:55;5.65;;;2.15;;
52554;SDS011;38455;52.710;6.502;2023-04-15T13:21:21;4.00;;;2.00;;
52554;SDS011;38455;52.710;6.502;2023-04-15T13:23:47;6.13;;;2.30;;
52554;SDS011;38455;52.710;6.502;2023-04-15T13:26:14;7.50;;;1.98;;
52554;SDS011;38455;52.710;6.502;2023-04-15T13:28:41;6.47;;;1.45;;
52554;SDS011;38455;52.710;6.502;2023-04-15T13:31:06;7.32;;;2.13;;
52554;SDS011;38455;52.710;6.502;2023-04-15T13:33:32;4.85;;;1.67;;
52554;SDS011;38455;52.710;6.502;2023-04-15T13:35:57;10.18;;;1.95;;
52554;SDS011;38455;52.710;6.502;2023-04-15T13:38:23;7.00;;;1.77;;
52554;SDS011;38455;52.710;6.502;2023-04-15T13:40:49;9.27;;;1.90;;
52554;SDS011;38455;52.710;6.502;2023-04-15T13:43:15;8.95;;;2.22;;
52554;SDS011;38455;52.710;6.502;2023-04-15T13:45:41;9.63;;;1.90;;
52554;SDS011;38455;52.710;6.502;2023-04-15T13:48:08;10.23;;;2.80;;
52554;SDS011;38455;52.710;6.502;2023-04-15T13:50:33;7.50;;;2.00;;
52554;SDS011;38455;52.710;6.502;2023-04-15T13:52:59;5.70;;;1.65;;
52554;SDS011;38455;52.710;6.502;2023-04-15T13:55:25;5.40;;;1.60;;
52554;SDS011;38455;52.710;6.502;2023-04-15T13:57:51;7.88;;;1.73;;
52554;SDS011;38455;52.710;6.502;2023-04-15T14:00:16;5.80;;;2.03;;
52554;SDS011;38455;52.710;6.502;2023-04-15T14:02:42;8.05;;;1.85;;
52554;SDS011;38455;52.710;6.502;2023-04-15T14:05:08;4.20;;;1.63;;
52554;SDS011;38455;52.710;6.502;2023-04-15T14:07:34;6.95;;;1.48;;
52554;SDS011;38455;52.710;6.502;2023-04-15T14:10:00;5.70;;;1.67;;
52554;SDS011;38455;52.710;6.502;2023-04-15T14:12:26;7.55;;;1.45;;
52554;SDS011;38455;52.710;6.502;2023-04-15T14:14:51;6.30;;;1.98;;
52554;SDS011;38455;52.710;6.502;2023-04-15T14:17:17;7.32;;;1.67;;
52554;SDS011;38455;52.710;6.502;2023-04-15T14:19:43;8.95;;;1.50;;
52554;SDS011;38455;52.710;6.502;2023-04-15T14:22:08;7.28;;;1.73;;
52554;SDS011;38455;52.710;6.502;2023-04-15T14:24:34;12.73;;;2.20;;
52554;SDS011;38455;52.710;6.502;2023-04-15T14:27:00;6.38;;;1.88;;
52554;SDS011;38455;52.710;6.502;2023-04-15T14:29:26;10.95;;;2.70;;
52554;SDS011;38455;52.710;6.502;2023-04-15T14:31:52;14.43;;;1.80;;
52554;SDS011;38455;52.710;6.502;2023-04-15T14:34:18;6.07;;;1.58;;
52554;SDS011;38455;52.710;6.502;2023-04-15T14:36:46;3.97;;;1.50;;
52554;SDS011;38455;52.710;6.502;2023-04-15T14:39:12;7.95;;;1.60;;
52554;SDS011;38455;52.710;6.502;2023-04-15T14:41:38;6.50;;;1.58;;
52554;SDS011;38455;52.710;6.502;2023-04-15T14:44:03;5.85;;;1.50;;
52554;SDS011;38455;52.710;6.502;2023-04-15T14:46:29;6.25;;;1.52;;
52554;SDS011;38455;52.710;6.502;2023-04-15T14:48:55;5.32;;;1.48;;
52554;SDS011;38455;52.710;6.502;2023-04-15T14:51:21;7.97;;;3.03;;